sensor_id;sensor_type;location;lat;lon;timestamp;pressure;altitude;pressure_sealevel;temperature;humidity
4123;BME280;2075;51.062;6.920;2024-03-25T00:01:51;94826.41;;;-144.48;100.00
4123;BME280;2075;51.062;6.920;2024-03-25T00:04:39;94852.84;;;-144.48;100.00
4123;BME280;2075;51.062;6.920;2024-03-25T00:07:23;94800.00;;;-144.48;100.00
4123;BME280;2075;51.062;6.920;2024-03-25T00:10:09;94919.91;;;-144.48;100.00
4123;BME280;2075;51.062;6.920;2024-03-25T00:12:53;94846.75;;;-144.48;100.00
4123;BME280;2075;51.062;6.920;2024-03-25T00:15:40;94840.66;;;-144.48;100.00
4123;BME280;2075;51.062;6.920;2024-03-25T00:18:25;94860.97;;;-144.48;100.00
4123;BME280;2075;51.062;6.920;2024-03-25T00:21:12;94854.88;;;-144.48;100.00
4123;BME280;2075;51.062;6.920;2024-03-25T00:23:57;94834.53;;;-144.48;100.00
4123;BME280;2075;51.062;6.920;2024-03-25T00:26:42;94838.63;;;-144.48;100.00
4123;BME280;2075;51.062;6.920;2024-03-25T00:29:27;94858.94;;;-144.48;100.00
4123;BME280;2075;51.062;6.920;2024-03-25T00:32:12;94863.00;;;-144.48;100.00
4123;BME280;2075;51.062;6.920;2024-03-25T00:34:59;94834.53;;;-144.48;100.00
4123;BME280;2075;51.062;6.920;2024-03-25T00:37:46;94842.69;;;-144.48;100.00
4123;BME280;2075;51.062;6.920;2024-03-25T00:40:30;94834.53;;;-144.48;100.00
4123;BME280;2075;51.062;6.920;2024-03-25T00:43:17;94793.91;;;-144.48;100.00
4123;BME280;2075;51.062;6.920;2024-03-25T00:46:02;94822.34;;;-144.48;100.00
4123;BME280;2075;51.062;6.920;2024-03-25T00:48:47;94860.97;;;-144.48;100.00
4123;BME280;2075;51.062;6.920;2024-03-25T00:51:32;94820.31;;;-144.48;100.00
4123;BME280;2075;51.062;6.920;2024-03-25T00:54:18;94850.81;;;-144.48;100.00
4123;BME280;2075;51.062;6.920;2024-03-25T00:57:04;94863.00;;;-144.48;100.00
4123;BME280;2075;51.062;6.920;2024-03-25T00:59:49;94826.41;;;-144.48;100.00
4123;BME280;2075;51.062;6.920;2024-03-25T01:02:33;94875.19;;;-144.48;100.00
4123;BME280;2075;51.062;6.920;2024-03-25T01:05:19;94883.31;;;-144.48;100.00
4123;BME280;2075;51.062;6.920;2024-03-25T01:08:04;94893.47;;;-144.48;100.00
4123;BME280;2075;51.062;6.920;2024-03-25T01:10:56;94869.09;;;-144.48;100.00
4123;BME280;2075;51.062;6.920;2024-03-25T01:13:41;94850.81;;;-144.48;100.00
4123;BME280;2075;51.062;6.920;2024-03-25T01:16:26;94869.09;;;-144.48;100.00
4123;BME280;2075;51.062;6.920;2024-03-25T01:19:11;94881.28;;;-144.48;100.00
4123;BME280;2075;51.062;6.920;2024-03-25T01:21:57;94871.13;;;-144.48;100.00
4123;BME280;2075;51.062;6.920;2024-03-25T01:24:43;94889.41;;;-144.48;100.00
4123;BME280;2075;51.062;6.920;2024-03-25T01:27:28;94858.94;;;-144.48;100.00
4123;BME280;2075;51.062;6.920;2024-03-25T01:30:14;94856.91;;;-144.48;100.00
4123;BME280;2075;51.062;6.920;2024-03-25T01:32:59;94840.66;;;-144.48;100.00
4123;BME280;2075;51.062;6.920;2024-03-25T01:35:44;94863.00;;;-144.48;100.00
4123;BME280;2075;51.062;6.920;2024-03-25T01:38:28;94879.25;;;-144.48;100.00
4123;BME280;2075;51.062;6.920;2024-03-25T01:41:14;94873.16;;;-144.48;100.00
4123;BME280;2075;51.062;6.920;2024-03-25T01:44:00;94919.91;;;-144.48;100.00
4123;BME280;2075;51.062;6.920;2024-03-25T01:46:47;94899.56;;;-144.48;100.00
4123;BME280;2075;51.062;6.920;2024-03-25T01:49:31;94873.16;;;-144.48;100.00
4123;BME280;2075;51.062;6.920;2024-03-25T01:52:16;94877.22;;;-144.48;100.00
4123;BME280;2075;51.062;6.920;2024-03-25T01:55:01;94881.28;;;-144.48;100.00
4123;BME280;2075;51.062;6.920;2024-03-25T01:57:47;95013.38;;;-144.48;100.00
4123;BME280;2075;51.062;6.920;2024-03-25T02:00:34;94909.72;;;-144.48;100.00
4123;BME280;2075;51.062;6.920;2024-03-25T02:03:20;95025.56;;;-144.48;100.00
4123;BME280;2075;51.062;6.920;2024-03-25T02:06:09;94871.13;;;-144.48;100.00
4123;BME280;2075;51.062;6.920;2024-03-25T02:08:58;95003.22;;;-144.48;100.00
4123;BME280;2075;51.062;6.920;2024-03-25T02:11:42;94887.38;;;-144.48;100.00
4123;BME280;2075;51.062;6.920;2024-03-25T02:14:28;94895.50;;;-144.48;100.00
4123;BME280;2075;51.062;6.920;2024-03-25T02:17:15;94901.59;;;-144.48;100.00
4123;BME280;2075;51.062;6.920;2024-03-25T02:20:00;94867.06;;;-144.48;100.00
4123;BME280;2075;51.062;6.920;2024-03-25T02:22:44;94871.13;;;-144.48;100.00
4123;BME280;2075;51.062;6.920;2024-03-25T02:25:31;94891.44;;;-144.48;100.00
4123;BME280;2075;51.062;6.920;2024-03-25T02:28:19;94887.38;;;-144.48;100.00
4123;BME280;2075;51.062;6.920;2024-03-25T02:31:04;94867.06;;;-144.48;100.00
4123;BME280;2075;51.062;6.920;2024-03-25T02:33:49;94802.03;;;-144.48;100.00
4123;BME280;2075;51.062;6.920;2024-03-25T02:36:35;94867.06;;;-144.48;100.00
4123;BME280;2075;51.062;6.920;2024-03-25T02:39:19;94840.66;;;-144.48;100.00
4123;BME280;2075;51.062;6.920;2024-03-25T02:42:05;94877.22;;;-144.48;100.00
4123;BME280;2075;51.062;6.920;2024-03-25T02:44:51;94891.44;;;-144.48;100.00
4123;BME280;2075;51.062;6.920;2024-03-25T02:47:36;94873.16;;;-144.48;100.00
4123;BME280;2075;51.062;6.920;2024-03-25T02:50:21;94899.56;;;-144.48;100.00
4123;BME280;2075;51.062;6.920;2024-03-25T02:53:07;94899.56;;;-144.48;100.00
4123;BME280;2075;51.062;6.920;2024-03-25T02:55:51;94903.63;;;-144.48;100.00
4123;BME280;2075;51.062;6.920;2024-03-25T02:58:37;94919.91;;;-144.48;100.00
4123;BME280;2075;51.062;6.920;2024-03-25T03:01:23;94921.94;;;-144.48;100.00
4123;BME280;2075;51.062;6.920;2024-03-25T03:04:08;94954.44;;;-144.48;100.00
4123;BME280;2075;51.062;6.920;2024-03-25T03:06:53;95161.72;;;-144.48;100.00
4123;BME280;2075;51.062;6.920;2024-03-25T03:09:40;94923.97;;;-144.48;100.00
4123;BME280;2075;51.062;6.920;2024-03-25T03:12:25;94903.63;;;-144.48;100.00
4123;BME280;2075;51.062;6.920;2024-03-25T03:15:10;94913.78;;;-144.48;100.00
4123;BME280;2075;51.062;6.920;2024-03-25T03:17:56;94907.69;;;-144.48;100.00
4123;BME280;2075;51.062;6.920;2024-03-25T03:20:41;94883.31;;;-144.48;100.00
4123;BME280;2075;51.062;6.920;2024-03-25T03:23:26;94897.53;;;-144.48;100.00
4123;BME280;2075;51.062;6.920;2024-03-25T03:26:11;94893.47;;;-144.48;100.00
4123;BME280;2075;51.062;6.920;2024-03-25T03:28:56;94928.03;;;-144.48;100.00
4123;BME280;2075;51.062;6.920;2024-03-25T03:31:42;94863.00;;;-144.48;100.00
4123;BME280;2075;51.062;6.920;2024-03-25T03:34:28;94948.34;;;-144.48;100.00
4123;BME280;2075;51.062;6.920;2024-03-25T03:37:14;94944.28;;;-144.48;100.00
4123;BME280;2075;51.062;6.920;2024-03-25T03:39:58;94944.28;;;-144.48;100.00
4123;BME280;2075;51.062;6.920;2024-03-25T03:42:43;94940.22;;;-144.48;100.00
4123;BME280;2075;51.062;6.920;2024-03-25T03:45:33;94907.69;;;-144.48;100.00
4123;BME280;2075;51.062;6.920;2024-03-25T03:48:18;94869.09;;;-144.48;100.00
4123;BME280;2075;51.062;6.920;2024-03-25T03:51:05;94883.31;;;-144.48;100.00
4123;BME280;2075;51.062;6.920;2024-03-25T03:53:51;94765.47;;;-144.48;100.00
4123;BME280;2075;51.062;6.920;2024-03-25T03:56:35;94867.06;;;-144.48;100.00
4123;BME280;2075;51.062;6.920;2024-03-25T03:59:21;94887.38;;;-144.48;100.00
4123;BME280;2075;51.062;6.920;2024-03-25T04:02:05;94832.50;;;-144.48;100.00
4123;BME280;2075;51.062;6.920;2024-03-25T04:04:51;94848.78;;;-144.48;100.00
4123;BME280;2075;51.062;6.920;2024-03-25T04:07:37;94879.25;;;-144.48;100.00
4123;BME280;2075;51.062;6.920;2024-03-25T04:10:22;94923.97;;;-144.48;100.00
4123;BME280;2075;51.062;6.920;2024-03-25T04:13:07;94891.44;;;-144.48;100.00
4123;BME280;2075;51.062;6.920;2024-03-25T04:15:52;94923.97;;;-144.48;100.00
4123;BME280;2075;51.062;6.920;2024-03-25T04:18:37;94919.91;;;-144.48;100.00
4123;BME280;2075;51.062;6.920;2024-03-25T04:21:23;94926.00;;;-144.48;100.00
4123;BME280;2075;51.062;6.920;2024-03-25T04:24:09;94930.06;;;-144.48;100.00
4123;BME280;2075;51.062;6.920;2024-03-25T04:26:54;94928.03;;;-144.48;100.00
4123;BME280;2075;51.062;6.920;2024-03-25T04:29:39;94895.50;;;-144.48;100.00
4123;BME280;2075;51.062;6.920;2024-03-25T04:32:24;94871.13;;;-144.48;100.00
4123;BME280;2075;51.062;6.920;2024-03-25T04:35:09;94810.16;;;-144.48;100.00
4123;BME280;2075;51.062;6.920;2024-03-25T04:37:55;94739.03;;;-144.48;100.00
4123;BME280;2075;51.062;6.920;2024-03-25T04:40:41;94621.19;;;-144.48;100.00
4123;BME280;2075;51.062;6.920;2024-03-25T04:43:25;94375.34;;;-144.48;100.00
4123;BME280;2075;51.062;6.920;2024-03-25T04:46:10;94184.38;;;-144.48;100.00
4123;BME280;2075;51.062;6.920;2024-03-25T04:48:55;93402.28;;;-144.48;100.00
4123;BME280;2075;51.062;6.920;2024-03-25T04:51:40;93361.66;;;-144.48;100.00
4123;BME280;2075;51.062;6.920;2024-03-25T04:54:24;92049.81;;;-144.48;100.00
4123;BME280;2075;51.062;6.920;2024-03-25T04:57:10;90941.41;;;-144.48;100.00
4123;BME280;2075;51.062;6.920;2024-03-25T04:59:55;88875.78;;;-144.48;100.00
4123;BME280;2075;51.062;6.920;2024-03-25T05:02:39;86422.16;;;-144.48;100.00
4123;BME280;2075;51.062;6.920;2024-03-25T05:05:23;82408.91;;;-144.48;100.00
4123;BME280;2075;51.062;6.920;2024-03-25T05:08:08;78159.66;;;-144.48;100.00
4123;BME280;2075;51.062;6.920;2024-03-25T05:10:53;75356.03;;;-144.48;100.00
4123;BME280;2075;51.062;6.920;2024-03-25T05:13:39;70980.28;;;-144.48;100.00
4123;BME280;2075;51.062;6.920;2024-03-25T05:16:23;68160.31;;;-144.48;100.00
4123;BME280;2075;51.062;6.920;2024-03-25T05:19:08;63002.50;;;-144.48;100.00
4123;BME280;2075;51.062;6.920;2024-03-25T05:21:53;53481.06;;;-144.48;100.00
4123;BME280;2075;51.062;6.920;2024-03-25T05:24:38;49371.94;;;-144.48;100.00
4123;BME280;2075;51.062;6.920;2024-03-25T05:27:22;45524.19;;;-144.48;100.00
4123;BME280;2075;51.062;6.920;2024-03-25T05:30:09;39121.03;;;-144.48;100.00
4123;BME280;2075;51.062;6.920;2024-03-25T05:32:54;38353.47;;;-144.48;100.00
4123;BME280;2075;51.062;6.920;2024-03-25T05:35:41;34773.81;;;-144.48;100.00
4123;BME280;2075;51.062;6.920;2024-03-25T05:38:25;32474.66;;;-144.48;100.00
4123;BME280;2075;51.062;6.920;2024-03-25T05:41:11;34518.28;;;-144.48;100.00
4123;BME280;2075;51.062;6.920;2024-03-25T05:43:55;40400.69;;;-144.48;100.00
4123;BME280;2075;51.062;6.920;2024-03-25T05:46:41;43217.66;;;-144.48;100.00
4123;BME280;2075;51.062;6.920;2024-03-25T05:49:26;44755.16;;;-144.48;100.00
4123;BME280;2075;51.062;6.920;2024-03-25T05:52:10;49115.28;;;-144.48;100.00
4123;BME280;2075;51.062;6.920;2024-03-25T05:54:55;53481.06;;;-144.48;100.00
4123;BME280;2075;51.062;6.920;2024-03-25T05:57:40;64291.22;;;-144.48;100.00
4123;BME280;2075;51.062;6.920;2024-03-25T06:00:24;74077.25;;;-144.48;100.00
4123;BME280;2075;51.062;6.920;2024-03-25T06:03:12;88713.50;;;-144.48;100.00
4123;BME280;2075;51.062;6.920;2024-03-25T06:05:58;93449.00;;;-144.48;100.00
4123;BME280;2075;51.062;6.920;2024-03-25T06:08:43;94155.94;;;-144.48;100.00
4123;BME280;2075;51.062;6.920;2024-03-25T06:11:27;94387.53;;;-144.48;100.00
4123;BME280;2075;51.062;6.920;2024-03-25T06:14:12;94456.63;;;-144.48;100.00
4123;BME280;2075;51.062;6.920;2024-03-25T06:16:56;94271.72;;;-144.48;85.15
4123;BME280;2075;51.062;6.920;2024-03-25T06:19:43;94160.00;;;-144.48;60.34
4123;BME280;2075;51.062;6.920;2024-03-25T06:22:28;93572.91;;;-144.48;49.14
4123;BME280;2075;51.062;6.920;2024-03-25T06:25:13;93520.09;;;-144.48;43.37
4123;BME280;2075;51.062;6.920;2024-03-25T06:28:00;93345.41;;;-144.48;40.48
4123;BME280;2075;51.062;6.920;2024-03-25T06:30:45;93172.78;;;-144.48;37.60
4123;BME280;2075;51.062;6.920;2024-03-25T06:33:48;93335.25;;;-144.48;35.61
4123;BME280;2075;51.062;6.920;2024-03-25T06:36:53;92894.53;;;-144.48;33.99
4123;BME280;2075;51.062;6.920;2024-03-25T06:39:37;92604.13;;;-144.48;32.21
4123;BME280;2075;51.062;6.920;2024-03-25T06:42:25;92809.25;;;-144.48;31.11
4123;BME280;2075;51.062;6.920;2024-03-25T06:45:14;92786.91;;;-144.48;31.62
4123;BME280;2075;51.062;6.920;2024-03-25T06:48:02;93103.72;;;-144.48;33.21
4123;BME280;2075;51.062;6.920;2024-03-25T06:51:07;93384.00;;;-144.48;35.32
4123;BME280;2075;51.062;6.920;2024-03-25T06:53:54;93489.63;;;-144.48;37.69
4123;BME280;2075;51.062;6.920;2024-03-25T06:56:39;93619.63;;;-144.48;38.15
4123;BME280;2075;51.062;6.920;2024-03-25T06:59:31;93426.66;;;-144.48;36.41
4123;BME280;2075;51.062;6.920;2024-03-25T07:02:16;93219.50;;;-144.48;35.08
4123;BME280;2075;51.062;6.920;2024-03-25T07:05:10;92730.03;;;-144.48;32.52
4123;BME280;2075;51.062;6.920;2024-03-25T07:11:14;92055.91;;;-144.48;28.42
4123;BME280;2075;51.062;6.920;2024-03-25T07:13:59;92133.06;;;-144.48;28.73
4123;BME280;2075;51.062;6.920;2024-03-25T07:16:44;92025.44;;;-144.48;28.05
4123;BME280;2075;51.062;6.920;2024-03-25T07:19:29;92007.16;;;-144.48;27.60
4123;BME280;2075;51.062;6.920;2024-03-25T07:22:14;91712.78;;;-144.48;27.07
4123;BME280;2075;51.062;6.920;2024-03-25T07:24:59;92088.38;;;-144.48;27.93
4123;BME280;2075;51.062;6.920;2024-03-25T07:27:46;91921.91;;;-144.48;27.97
4123;BME280;2075;51.062;6.920;2024-03-25T07:30:32;91607.22;;;-144.48;26.78
4123;BME280;2075;51.062;6.920;2024-03-25T07:33:18;91781.81;;;-144.48;27.08
4123;BME280;2075;51.062;6.920;2024-03-25T07:36:04;92135.09;;;-144.48;28.05
4123;BME280;2075;51.062;6.920;2024-03-25T07:38:49;92005.13;;;-144.48;27.26
4123;BME280;2075;51.062;6.920;2024-03-25T07:41:33;91887.38;;;-144.48;27.23
4123;BME280;2075;51.062;6.920;2024-03-25T07:44:19;91682.34;;;-144.48;26.57
4123;BME280;2075;51.062;6.920;2024-03-25T07:47:04;91676.25;;;-144.48;25.75
4123;BME280;2075;51.062;6.920;2024-03-25T07:49:49;91779.78;;;-144.48;26.94
4123;BME280;2075;51.062;6.920;2024-03-25T07:52:35;91747.28;;;-144.48;26.45
4123;BME280;2075;51.062;6.920;2024-03-25T07:55:20;91893.47;;;-144.48;27.05
4123;BME280;2075;51.062;6.920;2024-03-25T07:58:06;92214.28;;;-144.48;28.08
4123;BME280;2075;51.062;6.920;2024-03-25T08:00:52;92910.78;;;-144.48;28.79
4123;BME280;2075;51.062;6.920;2024-03-25T08:03:37;92157.41;;;-144.48;27.76
4123;BME280;2075;51.062;6.920;2024-03-25T08:06:21;92433.56;;;-144.48;28.34
4123;BME280;2075;51.062;6.920;2024-03-25T08:09:07;92263.00;;;-144.48;28.33
4123;BME280;2075;51.062;6.920;2024-03-25T08:11:54;92086.34;;;-144.48;27.92
4123;BME280;2075;51.062;6.920;2024-03-25T08:14:39;92045.75;;;-144.48;27.36
4123;BME280;2075;51.062;6.920;2024-03-25T08:17:25;91964.53;;;-144.48;26.78
4123;BME280;2075;51.062;6.920;2024-03-25T08:20:11;91990.94;;;-144.48;27.79
4123;BME280;2075;51.062;6.920;2024-03-25T08:22:56;92068.06;;;-144.48;27.73
4123;BME280;2075;51.062;6.920;2024-03-25T08:25:40;93089.50;;;-144.48;31.34
4123;BME280;2075;51.062;6.920;2024-03-25T08:28:26;93540.41;;;-144.48;35.46
4123;BME280;2075;51.062;6.920;2024-03-25T08:31:10;93534.31;;;-144.48;35.58
4123;BME280;2075;51.062;6.920;2024-03-25T08:33:58;93889.81;;;-144.48;39.45
4123;BME280;2075;51.062;6.920;2024-03-25T08:36:43;94115.28;;;-144.48;43.68
4123;BME280;2075;51.062;6.920;2024-03-25T08:39:28;94088.88;;;-144.48;46.92
4123;BME280;2075;51.062;6.920;2024-03-25T08:42:12;94064.50;;;-144.48;47.77
4123;BME280;2075;51.062;6.920;2024-03-25T08:44:57;93278.38;;;-144.48;43.77
4123;BME280;2075;51.062;6.920;2024-03-25T08:47:42;93599.31;;;-144.48;38.96
4123;BME280;2075;51.062;6.920;2024-03-25T08:50:29;93702.91;;;-144.48;39.13
4123;BME280;2075;51.062;6.920;2024-03-25T08:53:13;93979.19;;;-144.48;42.37
4123;BME280;2075;51.062;6.920;2024-03-25T08:55:58;94105.13;;;-144.48;45.52
4123;BME280;2075;51.062;6.920;2024-03-25T08:58:43;94157.97;;;-144.48;48.21
4123;BME280;2075;51.062;6.920;2024-03-25T09:01:28;93897.94;;;-144.48;47.86
4123;BME280;2075;51.062;6.920;2024-03-25T09:04:13;94198.59;;;-144.48;49.40
4123;BME280;2075;51.062;6.920;2024-03-25T09:06:59;94235.16;;;-144.48;50.29
4123;BME280;2075;51.062;6.920;2024-03-25T09:09:44;94141.72;;;-144.48;49.96
4123;BME280;2075;51.062;6.920;2024-03-25T09:12:48;94895.50;;;-144.48;50.38
4123;BME280;2075;51.062;6.920;2024-03-25T09:15:34;94281.88;;;-144.48;49.35
4123;BME280;2075;51.062;6.920;2024-03-25T09:18:19;94326.59;;;-144.48;48.60
4123;BME280;2075;51.062;6.920;2024-03-25T09:21:04;94271.72;;;-144.48;51.13
4123;BME280;2075;51.062;6.920;2024-03-25T09:23:50;94279.84;;;-144.48;49.32
4123;BME280;2075;51.062;6.920;2024-03-25T09:26:37;94253.44;;;-144.48;49.15
4123;BME280;2075;51.062;6.920;2024-03-25T09:29:21;94379.41;;;-144.48;48.18
4123;BME280;2075;51.062;6.920;2024-03-25T09:32:06;94279.84;;;-144.48;48.13
4123;BME280;2075;51.062;6.920;2024-03-25T09:34:51;94438.34;;;-144.48;46.35
4123;BME280;2075;51.062;6.920;2024-03-25T09:37:37;94249.38;;;-144.48;43.89
4123;BME280;2075;51.062;6.920;2024-03-25T09:40:25;94261.56;;;-144.48;44.45
4123;BME280;2075;51.062;6.920;2024-03-25T09:43:13;94123.44;;;-144.48;45.42
4123;BME280;2075;51.062;6.920;2024-03-25T09:46:01;94145.78;;;-144.48;44.48
4123;BME280;2075;51.062;6.920;2024-03-25T09:48:46;94139.69;;;-144.48;45.56
4123;BME280;2075;51.062;6.920;2024-03-25T09:51:31;94227.03;;;-144.48;45.16
4123;BME280;2075;51.062;6.920;2024-03-25T09:54:16;94127.50;;;-144.48;46.60
4123;BME280;2075;51.062;6.920;2024-03-25T09:57:06;94233.13;;;-144.48;46.01
4123;BME280;2075;51.062;6.920;2024-03-25T09:59:51;93934.50;;;-144.48;44.90
4123;BME280;2075;51.062;6.920;2024-03-25T10:02:38;94141.72;;;-144.48;45.56
4123;BME280;2075;51.062;6.920;2024-03-25T10:05:24;94155.94;;;-144.48;44.57
4123;BME280;2075;51.062;6.920;2024-03-25T10:08:09;93735.41;;;-144.48;43.58
4123;BME280;2075;51.062;6.920;2024-03-25T10:10:55;94208.75;;;-144.48;44.09
4123;BME280;2075;51.062;6.920;2024-03-25T10:13:42;94121.38;;;-144.48;43.58
4123;BME280;2075;51.062;6.920;2024-03-25T10:16:28;94265.63;;;-144.48;44.45
4123;BME280;2075;51.062;6.920;2024-03-25T10:19:15;94218.91;;;-144.48;43.93
4123;BME280;2075;51.062;6.920;2024-03-25T10:22:04;94828.44;;;-144.48;44.61
4123;BME280;2075;51.062;6.920;2024-03-25T10:24:49;94237.19;;;-144.48;45.74
4123;BME280;2075;51.062;6.920;2024-03-25T10:27:34;94155.94;;;-144.48;45.19
4123;BME280;2075;51.062;6.920;2024-03-25T10:30:21;93924.34;;;-144.48;43.47
4123;BME280;2075;51.062;6.920;2024-03-25T10:33:07;94147.81;;;-144.48;43.23
4123;BME280;2075;51.062;6.920;2024-03-25T10:35:52;94084.81;;;-144.48;41.01
4123;BME280;2075;51.062;6.920;2024-03-25T10:38:38;94170.16;;;-144.48;40.74
4123;BME280;2075;51.062;6.920;2024-03-25T10:41:23;94204.69;;;-144.48;42.79
4123;BME280;2075;51.062;6.920;2024-03-25T10:44:09;94131.56;;;-144.48;43.68
4123;BME280;2075;51.062;6.920;2024-03-25T10:47:00;94247.34;;;-144.48;43.63
4123;BME280;2075;51.062;6.920;2024-03-25T10:49:49;94269.69;;;-144.48;44.71
4123;BME280;2075;51.062;6.920;2024-03-25T10:52:37;94298.16;;;-144.48;44.98
4123;BME280;2075;51.062;6.920;2024-03-25T10:55:22;94810.16;;;-144.48;43.76
4123;BME280;2075;51.062;6.920;2024-03-25T10:58:08;94180.31;;;-144.48;43.65
4123;BME280;2075;51.062;6.920;2024-03-25T11:00:55;94326.59;;;-144.48;43.55
4123;BME280;2075;51.062;6.920;2024-03-25T11:03:41;94281.88;;;-144.48;45.34
4123;BME280;2075;51.062;6.920;2024-03-25T11:06:26;94269.69;;;-144.48;44.67
4123;BME280;2075;51.062;6.920;2024-03-25T11:09:22;94328.63;;;-144.48;45.16
4123;BME280;2075;51.062;6.920;2024-03-25T11:12:10;94332.69;;;-144.48;46.00
4123;BME280;2075;51.062;6.920;2024-03-25T11:14:57;94025.91;;;-144.48;44.58
4123;BME280;2075;51.062;6.920;2024-03-25T11:17:48;94231.09;;;-144.48;44.40
4123;BME280;2075;51.062;6.920;2024-03-25T11:20:34;94243.28;;;-144.48;43.98
4123;BME280;2075;51.062;6.920;2024-03-25T11:23:19;94184.38;;;-144.48;42.64
4123;BME280;2075;51.062;6.920;2024-03-25T11:26:04;94121.38;;;-144.48;41.69
4123;BME280;2075;51.062;6.920;2024-03-25T11:28:48;94174.22;;;-144.48;41.42
4123;BME280;2075;51.062;6.920;2024-03-25T11:31:34;94160.00;;;-144.48;40.61
4123;BME280;2075;51.062;6.920;2024-03-25T11:34:22;94251.41;;;-144.48;40.70
4123;BME280;2075;51.062;6.920;2024-03-25T11:37:09;94275.78;;;-144.48;41.29
4123;BME280;2075;51.062;6.920;2024-03-25T11:40:01;94119.34;;;-144.48;42.48
4123;BME280;2075;51.062;6.920;2024-03-25T11:42:47;94220.94;;;-144.48;42.53
4123;BME280;2075;51.062;6.920;2024-03-25T11:45:32;94216.88;;;-144.48;42.27
4123;BME280;2075;51.062;6.920;2024-03-25T11:48:17;94097.00;;;-144.48;41.16
4123;BME280;2075;51.062;6.920;2024-03-25T11:51:03;94220.94;;;-144.48;40.79
4123;BME280;2075;51.062;6.920;2024-03-25T11:53:50;94188.44;;;-144.48;40.67
4123;BME280;2075;51.062;6.920;2024-03-25T11:56:34;94164.06;;;-144.48;39.93
4123;BME280;2075;51.062;6.920;2024-03-25T11:59:19;94129.53;;;-144.48;40.76
4123;BME280;2075;51.062;6.920;2024-03-25T12:02:06;94151.88;;;-144.48;40.32
4123;BME280;2075;51.062;6.920;2024-03-25T12:04:51;94139.69;;;-144.48;38.88
4123;BME280;2075;51.062;6.920;2024-03-25T12:07:36;94168.13;;;-144.48;38.47
4123;BME280;2075;51.062;6.920;2024-03-25T12:10:23;94149.84;;;-144.48;38.87
4123;BME280;2075;51.062;6.920;2024-03-25T12:13:26;94166.09;;;-144.48;38.61
4123;BME280;2075;51.062;6.920;2024-03-25T12:16:12;94220.94;;;-144.48;39.38
4123;BME280;2075;51.062;6.920;2024-03-25T12:18:57;93920.28;;;-144.48;39.40
4123;BME280;2075;51.062;6.920;2024-03-25T12:21:42;94273.75;;;-144.48;39.26
4123;BME280;2075;51.062;6.920;2024-03-25T12:24:27;94235.16;;;-144.48;38.87
4123;BME280;2075;51.062;6.920;2024-03-25T12:27:14;94418.00;;;-144.48;39.12
4123;BME280;2075;51.062;6.920;2024-03-25T12:30:00;94107.16;;;-144.48;40.32
4123;BME280;2075;51.062;6.920;2024-03-25T12:32:46;94350.97;;;-144.48;40.29
4123;BME280;2075;51.062;6.920;2024-03-25T12:35:35;94229.06;;;-144.48;39.82
4123;BME280;2075;51.062;6.920;2024-03-25T12:38:24;94263.59;;;-144.48;39.42
4123;BME280;2075;51.062;6.920;2024-03-25T12:41:10;94253.44;;;-144.48;38.58
4123;BME280;2075;51.062;6.920;2024-03-25T12:43:57;94237.19;;;-144.48;38.21
4123;BME280;2075;51.062;6.920;2024-03-25T12:46:42;94214.84;;;-144.48;38.38
4123;BME280;2075;51.062;6.920;2024-03-25T12:49:26;94200.63;;;-144.48;38.45
4123;BME280;2075;51.062;6.920;2024-03-25T12:52:12;94700.44;;;-144.48;39.48
4123;BME280;2075;51.062;6.920;2024-03-25T12:54:57;94082.78;;;-144.48;39.92
4123;BME280;2075;51.062;6.920;2024-03-25T12:57:42;94170.16;;;-144.48;39.36
4123;BME280;2075;51.062;6.920;2024-03-25T13:00:29;94253.44;;;-144.48;38.42
4123;BME280;2075;51.062;6.920;2024-03-25T13:03:14;94239.22;;;-144.48;39.27
4123;BME280;2075;51.062;6.920;2024-03-25T13:06:00;94208.75;;;-144.48;38.87
4123;BME280;2075;51.062;6.920;2024-03-25T13:08:45;94249.38;;;-144.48;38.95
4123;BME280;2075;51.062;6.920;2024-03-25T13:11:31;94290.00;;;-144.48;39.14
4123;BME280;2075;51.062;6.920;2024-03-25T13:14:17;94265.63;;;-144.48;38.70
4123;BME280;2075;51.062;6.920;2024-03-25T13:17:04;94273.75;;;-144.48;37.95
4123;BME280;2075;51.062;6.920;2024-03-25T13:19:48;94251.41;;;-144.48;37.20
4123;BME280;2075;51.062;6.920;2024-03-25T13:22:33;94137.66;;;-144.48;36.95
4123;BME280;2075;51.062;6.920;2024-03-25T13:25:18;94172.19;;;-144.48;36.39
4123;BME280;2075;51.062;6.920;2024-03-25T13:28:04;94174.22;;;-144.48;37.39
4123;BME280;2075;51.062;6.920;2024-03-25T13:30:49;94155.94;;;-144.48;38.04
4123;BME280;2075;51.062;6.920;2024-03-25T13:33:35;94097.00;;;-144.48;37.55
4123;BME280;2075;51.062;6.920;2024-03-25T13:36:21;94070.59;;;-144.48;36.26
4123;BME280;2075;51.062;6.920;2024-03-25T13:39:07;94137.66;;;-144.48;36.69
4123;BME280;2075;51.062;6.920;2024-03-25T13:41:53;94320.50;;;-144.48;37.61
4123;BME280;2075;51.062;6.920;2024-03-25T13:44:38;94166.09;;;-144.48;37.47
4123;BME280;2075;51.062;6.920;2024-03-25T13:47:24;94032.00;;;-144.48;36.88
4123;BME280;2075;51.062;6.920;2024-03-25T13:50:11;94192.50;;;-144.48;36.56
4123;BME280;2075;51.062;6.920;2024-03-25T13:52:55;94210.78;;;-144.48;36.91
4123;BME280;2075;51.062;6.920;2024-03-25T13:55:42;94411.91;;;-144.48;37.27
4123;BME280;2075;51.062;6.920;2024-03-25T13:58:27;93918.25;;;-144.48;37.53
4123;BME280;2075;51.062;6.920;2024-03-25T14:01:12;94186.41;;;-144.48;37.76
4123;BME280;2075;51.062;6.920;2024-03-25T14:03:57;94208.75;;;-144.48;37.41
4123;BME280;2075;51.062;6.920;2024-03-25T14:06:43;94196.56;;;-144.48;36.48
4123;BME280;2075;51.062;6.920;2024-03-25T14:09:29;94143.75;;;-144.48;36.49
4123;BME280;2075;51.062;6.920;2024-03-25T14:12:14;94229.06;;;-144.48;35.91
4123;BME280;2075;51.062;6.920;2024-03-25T14:15:00;94204.69;;;-144.48;36.31
4123;BME280;2075;51.062;6.920;2024-03-25T14:17:45;94174.22;;;-144.48;36.23
4123;BME280;2075;51.062;6.920;2024-03-25T14:20:31;94123.44;;;-144.48;35.88
4123;BME280;2075;51.062;6.920;2024-03-25T14:23:17;94188.44;;;-144.48;36.49
4123;BME280;2075;51.062;6.920;2024-03-25T14:26:02;94149.84;;;-144.48;37.22
4123;BME280;2075;51.062;6.920;2024-03-25T14:28:47;94255.47;;;-144.48;36.99
4123;BME280;2075;51.062;6.920;2024-03-25T14:31:33;94180.31;;;-144.48;36.34
4123;BME280;2075;51.062;6.920;2024-03-25T14:34:18;94635.41;;;-144.48;36.81
4123;BME280;2075;51.062;6.920;2024-03-25T14:37:03;94192.50;;;-144.48;36.46